sensor_id;sensor_type;location;lat;lon;timestamp;P1;durP1;ratioP1;P2;durP2;ratioP2
83190;SDS011;73087;49.924;22.080;2024-02-15T00:00:10;103.82;;;44.20;;
83190;SDS011;73087;49.924;22.080;2024-02-15T00:01:11;98.57;;;43.00;;
83190;SDS011;73087;49.924;22.080;2024-02-15T00:02:12;95.68;;;41.97;;
83190;SDS011;73087;49.924;22.080;2024-02-15T00:03:12;100.57;;;42.60;;
83190;SDS011;73087;49.924;22.080;2024-02-15T00:04:13;91.07;;;41.25;;
83190;SDS011;73087;49.924;22.080;2024-02-15T00:05:13;94.30;;;42.00;;
83190;SDS011;73087;49.924;22.080;2024-02-15T00:06:14;98.13;;;39.55;;
83190;SDS011;73087;49.924;22.080;2024-02-15T00:07:14;94.25;;;41.38;;
83190;SDS011;73087;49.924;22.080;2024-02-15T00:08:15;93.70;;;41.38;;
83190;SDS011;73087;49.924;22.080;2024-02-15T00:09:16;92.13;;;39.17;;
83190;SDS011;73087;49.924;22.080;2024-02-15T00:10:16;99.40;;;41.78;;
83190;SDS011;73087;49.924;22.080;2024-02-15T00:11:17;100.10;;;41.22;;
83190;SDS011;73087;49.924;22.080;2024-02-15T00:12:17;96.93;;;40.08;;
83190;SDS011;73087;49.924;22.080;2024-02-15T00:13:19;95.95;;;41.08;;
83190;SDS011;73087;49.924;22.080;2024-02-15T00:14:20;95.43;;;42.17;;
83190;SDS011;73087;49.924;22.080;2024-02-15T00:15:20;101.57;;;41.63;;
83190;SDS011;73087;49.924;22.080;2024-02-15T00:16:21;96.63;;;43.35;;
83190;SDS011;73087;49.924;22.080;2024-02-15T00:17:22;95.78;;;41.25;;
83190;SDS011;73087;49.924;22.080;2024-02-15T00:18:22;105.97;;;44.72;;
83190;SDS011;73087;49.924;22.080;2024-02-15T00:19:23;99.90;;;42.90;;
83190;SDS011;73087;49.924;22.080;2024-02-15T00:20:23;100.97;;;40.15;;
83190;SDS011;73087;49.924;22.080;2024-02-15T00:21:24;106.90;;;43.92;;
83190;SDS011;73087;49.924;22.080;2024-02-15T00:22:24;101.25;;;41.03;;
83190;SDS011;73087;49.924;22.080;2024-02-15T00:23:25;92.72;;;40.05;;
83190;SDS011;73087;49.924;22.080;2024-02-15T00:24:25;84.28;;;37.80;;
83190;SDS011;73087;49.924;22.080;2024-02-15T00:25:26;87.30;;;36.55;;
83190;SDS011;73087;49.924;22.080;2024-02-15T00:26:26;84.32;;;39.22;;
83190;SDS011;73087;49.924;22.080;2024-02-15T00:27:27;84.03;;;36.38;;
83190;SDS011;73087;49.924;22.080;2024-02-15T00:28:29;90.13;;;38.05;;
83190;SDS011;73087;49.924;22.080;2024-02-15T00:29:29;89.13;;;38.63;;
83190;SDS011;73087;49.924;22.080;2024-02-15T00:30:30;95.72;;;38.35;;
83190;SDS011;73087;49.924;22.080;2024-02-15T00:31:30;86.95;;;36.80;;
83190;SDS011;73087;49.924;22.080;2024-02-15T00:32:31;84.72;;;37.08;;
83190;SDS011;73087;49.924;22.080;2024-02-15T00:33:31;76.90;;;32.95;;
83190;SDS011;73087;49.924;22.080;2024-02-15T00:34:32;72.40;;;32.15;;
83190;SDS011;73087;49.924;22.080;2024-02-15T00:35:33;75.15;;;33.08;;
83190;SDS011;73087;49.924;22.080;2024-02-15T00:36:33;79.93;;;33.65;;
83190;SDS011;73087;49.924;22.080;2024-02-15T00:37:34;69.45;;;33.45;;
83190;SDS011;73087;49.924;22.080;2024-02-15T00:38:34;72.15;;;32.15;;
83190;SDS011;73087;49.924;22.080;2024-02-15T00:39:35;71.03;;;32.78;;
83190;SDS011;73087;49.924;22.080;2024-02-15T00:40:35;72.30;;;33.97;;
83190;SDS011;73087;49.924;22.080;2024-02-15T00:41:36;73.25;;;33.92;;
83190;SDS011;73087;49.924;22.080;2024-02-15T00:42:36;73.85;;;32.15;;
83190;SDS011;73087;49.924;22.080;2024-02-15T00:43:38;74.03;;;30.58;;
83190;SDS011;73087;49.924;22.080;2024-02-15T00:44:39;75.18;;;32.20;;
83190;SDS011;73087;49.924;22.080;2024-02-15T00:45:39;68.97;;;32.72;;
83190;SDS011;73087;49.924;22.080;2024-02-15T00:46:40;73.82;;;33.65;;
83190;SDS011;73087;49.924;22.080;2024-02-15T00:47:41;72.47;;;32.85;;
83190;SDS011;73087;49.924;22.080;2024-02-15T00:48:41;78.85;;;32.92;;
83190;SDS011;73087;49.924;22.080;2024-02-15T00:49:42;75.43;;;33.47;;
83190;SDS011;73087;49.924;22.080;2024-02-15T00:50:42;76.05;;;34.15;;
83190;SDS011;73087;49.924;22.080;2024-02-15T00:51:43;74.38;;;33.50;;
83190;SDS011;73087;49.924;22.080;2024-02-15T00:52:43;75.53;;;35.30;;
83190;SDS011;73087;49.924;22.080;2024-02-15T00:53:44;74.47;;;32.47;;
83190;SDS011;73087;49.924;22.080;2024-02-15T00:54:44;69.43;;;33.13;;
83190;SDS011;73087;49.924;22.080;2024-02-15T00:55:45;75.43;;;33.25;;
83190;SDS011;73087;49.924;22.080;2024-02-15T00:56:46;77.85;;;34.33;;
83190;SDS011;73087;49.924;22.080;2024-02-15T00:57:46;70.13;;;27.73;;
83190;SDS011;73087;49.924;22.080;2024-02-15T00:58:48;70.80;;;30.40;;
83190;SDS011;73087;49.924;22.080;2024-02-15T00:59:48;77.05;;;32.95;;
83190;SDS011;73087;49.924;22.080;2024-02-15T01:00:49;75.85;;;33.90;;
83190;SDS011;73087;49.924;22.080;2024-02-15T01:01:50;72.65;;;31.90;;
83190;SDS011;73087;49.924;22.080;2024-02-15T01:02:50;74.68;;;32.75;;
83190;SDS011;73087;49.924;22.080;2024-02-15T01:03:51;76.78;;;32.83;;
83190;SDS011;73087;49.924;22.080;2024-02-15T01:04:51;73.15;;;31.90;;
83190;SDS011;73087;49.924;22.080;2024-02-15T01:05:52;64.57;;;30.02;;
83190;SDS011;73087;49.924;22.080;2024-02-15T01:06:52;73.22;;;32.05;;
83190;SDS011;73087;49.924;22.080;2024-02-15T01:07:53;70.05;;;29.23;;
83190;SDS011;73087;49.924;22.080;2024-02-15T01:08:54;70.95;;;29.92;;
83190;SDS011;73087;49.924;22.080;2024-02-15T01:09:54;65.78;;;29.83;;
83190;SDS011;73087;49.924;22.080;2024-02-15T01:10:55;66.93;;;30.50;;
83190;SDS011;73087;49.924;22.080;2024-02-15T01:11:55;71.75;;;30.70;;
83190;SDS011;73087;49.924;22.080;2024-02-15T01:12:56;72.93;;;31.77;;
83190;SDS011;73087;49.924;22.080;2024-02-15T01:13:58;77.10;;;33.20;;
83190;SDS011;73087;49.924;22.080;2024-02-15T01:14:58;68.75;;;32.05;;
83190;SDS011;73087;49.924;22.080;2024-02-15T01:15:59;67.03;;;31.45;;
83190;SDS011;73087;49.924;22.080;2024-02-15T01:16:59;74.75;;;32.25;;
83190;SDS011;73087;49.924;22.080;2024-02-15T01:18:00;69.82;;;30.48;;
83190;SDS011;73087;49.924;22.080;2024-02-15T01:19:00;61.72;;;29.33;;
83190;SDS011;73087;49.924;22.080;2024-02-15T01:20:01;60.92;;;28.35;;
83190;SDS011;73087;49.924;22.080;2024-02-15T01:21:02;64.43;;;30.05;;
83190;SDS011;73087;49.924;22.080;2024-02-15T01:22:03;62.78;;;28.52;;
83190;SDS011;73087;49.924;22.080;2024-02-15T01:23:03;64.85;;;29.35;;
83190;SDS011;73087;49.924;22.080;2024-02-15T01:24:04;62.88;;;27.95;;
83190;SDS011;73087;49.924;22.080;2024-02-15T01:25:05;52.10;;;24.65;;
83190;SDS011;73087;49.924;22.080;2024-02-15T01:26:06;45.72;;;22.05;;
83190;SDS011;73087;49.924;22.080;2024-02-15T01:27:06;56.50;;;23.60;;
83190;SDS011;73087;49.924;22.080;2024-02-15T01:28:07;44.78;;;21.27;;
83190;SDS011;73087;49.924;22.080;2024-02-15T01:29:09;45.55;;;20.13;;
83190;SDS011;73087;49.924;22.080;2024-02-15T01:30:10;41.10;;;18.73;;
83190;SDS011;73087;49.924;22.080;2024-02-15T01:31:11;40.75;;;18.65;;
83190;SDS011;73087;49.924;22.080;2024-02-15T01:32:11;41.38;;;19.15;;
83190;SDS011;73087;49.924;22.080;2024-02-15T01:33:12;42.70;;;19.90;;
83190;SDS011;73087;49.924;22.080;2024-02-15T01:34:12;51.05;;;23.33;;
83190;SDS011;73087;49.924;22.080;2024-02-15T01:35:13;48.17;;;21.98;;
83190;SDS011;73087;49.924;22.080;2024-02-15T01:36:14;47.38;;;21.65;;
83190;SDS011;73087;49.924;22.080;2024-02-15T01:37:14;44.03;;;20.63;;
83190;SDS011;73087;49.924;22.080;2024-02-15T01:38:15;45.65;;;20.55;;
83190;SDS011;73087;49.924;22.080;2024-02-15T01:39:15;44.92;;;21.55;;
83190;SDS011;73087;49.924;22.080;2024-02-15T01:40:16;44.00;;;21.13;;
83190;SDS011;73087;49.924;22.080;2024-02-15T01:41:16;45.40;;;21.27;;
83190;SDS011;73087;49.924;22.080;2024-02-15T01:42:17;46.15;;;22.10;;
83190;SDS011;73087;49.924;22.080;2024-02-15T01:43:18;47.92;;;21.67;;
83190;SDS011;73087;49.924;22.080;2024-02-15T01:44:19;46.65;;;22.45;;
83190;SDS011;73087;49.924;22.080;2024-02-15T01:45:20;46.72;;;21.20;;
83190;SDS011;73087;49.924;22.080;2024-02-15T01:46:21;50.33;;;23.65;;
83190;SDS011;73087;49.924;22.080;2024-02-15T01:47:21;45.55;;;21.50;;
83190;SDS011;73087;49.924;22.080;2024-02-15T01:48:22;44.72;;;21.02;;
83190;SDS011;73087;49.924;22.080;2024-02-15T01:49:24;48.80;;;21.52;;
83190;SDS011;73087;49.924;22.080;2024-02-15T01:50:27;49.88;;;23.05;;
83190;SDS011;73087;49.924;22.080;2024-02-15T01:51:28;52.95;;;24.45;;
83190;SDS011;73087;49.924;22.080;2024-02-15T01:52:29;52.83;;;24.08;;
83190;SDS011;73087;49.924;22.080;2024-02-15T01:53:30;53.35;;;25.25;;
83190;SDS011;73087;49.924;22.080;2024-02-15T01:54:31;55.13;;;25.30;;
83190;SDS011;73087;49.924;22.080;2024-02-15T01:55:32;53.70;;;24.35;;
83190;SDS011;73087;49.924;22.080;2024-02-15T01:56:34;50.65;;;24.02;;
83190;SDS011;73087;49.924;22.080;2024-02-15T01:57:35;47.85;;;23.15;;
83190;SDS011;73087;49.924;22.080;2024-02-15T01:58:36;47.95;;;22.10;;
83190;SDS011;73087;49.924;22.080;2024-02-15T01:59:40;51.10;;;23.67;;
83190;SDS011;73087;49.924;22.080;2024-02-15T02:00:41;48.13;;;21.80;;
83190;SDS011;73087;49.924;22.080;2024-02-15T02:01:42;50.70;;;22.88;;
83190;SDS011;73087;49.924;22.080;2024-02-15T02:02:44;54.47;;;22.77;;
83190;SDS011;73087;49.924;22.080;2024-02-15T02:03:45;52.78;;;23.42;;
83190;SDS011;73087;49.924;22.080;2024-02-15T02:04:46;51.13;;;22.80;;
83190;SDS011;73087;49.924;22.080;2024-02-15T02:05:47;49.67;;;22.95;;
83190;SDS011;73087;49.924;22.080;2024-02-15T02:06:47;49.05;;;23.17;;
83190;SDS011;73087;49.924;22.080;2024-02-15T02:07:48;53.25;;;25.60;;
83190;SDS011;73087;49.924;22.080;2024-02-15T02:08:48;48.42;;;23.83;;
83190;SDS011;73087;49.924;22.080;2024-02-15T02:09:49;52.70;;;25.05;;
83190;SDS011;73087;49.924;22.080;2024-02-15T02:10:50;48.15;;;23.98;;
83190;SDS011;73087;49.924;22.080;2024-02-15T02:11:51;54.75;;;24.67;;
83190;SDS011;73087;49.924;22.080;2024-02-15T02:12:52;56.55;;;26.95;;
83190;SDS011;73087;49.924;22.080;2024-02-15T02:13:52;54.50;;;25.25;;
83190;SDS011;73087;49.924;22.080;2024-02-15T02:14:54;57.78;;;25.73;;
83190;SDS011;73087;49.924;22.080;2024-02-15T02:15:55;56.67;;;25.25;;
83190;SDS011;73087;49.924;22.080;2024-02-15T02:16:55;51.30;;;24.95;;
83190;SDS011;73087;49.924;22.080;2024-02-15T02:17:56;52.38;;;24.45;;
83190;SDS011;73087;49.924;22.080;2024-02-15T02:18:57;52.58;;;23.15;;
83190;SDS011;73087;49.924;22.080;2024-02-15T02:19:58;45.58;;;20.58;;
83190;SDS011;73087;49.924;22.080;2024-02-15T02:20:58;40.00;;;19.23;;
83190;SDS011;73087;49.924;22.080;2024-02-15T02:21:59;43.00;;;20.15;;
83190;SDS011;73087;49.924;22.080;2024-02-15T02:23:01;42.75;;;20.17;;
83190;SDS011;73087;49.924;22.080;2024-02-15T02:24:09;45.03;;;20.73;;
83190;SDS011;73087;49.924;22.080;2024-02-15T02:25:15;40.75;;;19.33;;
83190;SDS011;73087;49.924;22.080;2024-02-15T02:26:16;43.08;;;19.50;;
83190;SDS011;73087;49.924;22.080;2024-02-15T02:27:17;42.00;;;21.73;;
83190;SDS011;73087;49.924;22.080;2024-02-15T02:28:19;42.40;;;20.42;;
83190;SDS011;73087;49.924;22.080;2024-02-15T02:29:20;46.53;;;21.50;;
83190;SDS011;73087;49.924;22.080;2024-02-15T02:30:20;44.55;;;21.70;;
83190;SDS011;73087;49.924;22.080;2024-02-15T02:31:21;45.63;;;21.58;;
83190;SDS011;73087;49.924;22.080;2024-02-15T02:32:21;46.10;;;22.35;;
83190;SDS011;73087;49.924;22.080;2024-02-15T02:33:22;45.17;;;19.95;;
83190;SDS011;73087;49.924;22.080;2024-02-15T02:34:22;44.15;;;20.30;;
83190;SDS011;73087;49.924;22.080;2024-02-15T02:35:23;46.42;;;21.42;;
83190;SDS011;73087;49.924;22.080;2024-02-15T02:36:23;49.83;;;22.50;;
83190;SDS011;73087;49.924;22.080;2024-02-15T02:37:24;49.58;;;23.38;;
83190;SDS011;73087;49.924;22.080;2024-02-15T02:38:24;47.67;;;22.23;;
83190;SDS011;73087;49.924;22.080;2024-02-15T02:39:25;54.65;;;23.38;;
83190;SDS011;73087;49.924;22.080;2024-02-15T02:40:27;48.35;;;22.95;;
83190;SDS011;73087;49.924;22.080;2024-02-15T02:41:27;55.58;;;24.23;;
83190;SDS011;73087;49.924;22.080;2024-02-15T02:42:28;49.70;;;24.08;;
83190;SDS011;73087;49.924;22.080;2024-02-15T02:43:28;54.70;;;25.67;;
83190;SDS011;73087;49.924;22.080;2024-02-15T02:44:29;56.60;;;25.88;;
83190;SDS011;73087;49.924;22.080;2024-02-15T02:45:30;60.33;;;26.00;;
83190;SDS011;73087;49.924;22.080;2024-02-15T02:46:30;48.22;;;24.40;;
83190;SDS011;73087;49.924;22.080;2024-02-15T02:47:31;49.25;;;22.10;;
83190;SDS011;73087;49.924;22.080;2024-02-15T02:48:31;46.03;;;21.23;;
83190;SDS011;73087;49.924;22.080;2024-02-15T02:49:32;47.53;;;21.17;;
83190;SDS011;73087;49.924;22.080;2024-02-15T02:50:33;40.05;;;20.20;;
83190;SDS011;73087;49.924;22.080;2024-02-15T02:51:33;47.22;;;21.58;;
83190;SDS011;73087;49.924;22.080;2024-02-15T02:52:34;47.92;;;21.15;;
83190;SDS011;73087;49.924;22.080;2024-02-15T02:53:34;44.42;;;21.00;;
83190;SDS011;73087;49.924;22.080;2024-02-15T02:54:35;46.42;;;21.48;;
83190;SDS011;73087;49.924;22.080;2024-02-15T02:55:37;50.58;;;21.45;;
83190;SDS011;73087;49.924;22.080;2024-02-15T02:56:37;49.75;;;20.90;;
83190;SDS011;73087;49.924;22.080;2024-02-15T02:57:38;46.35;;;21.58;;
83190;SDS011;73087;49.924;22.080;2024-02-15T02:58:39;47.35;;;23.02;;
83190;SDS011;73087;49.924;22.080;2024-02-15T02:59:39;58.10;;;25.83;;
83190;SDS011;73087;49.924;22.080;2024-02-15T03:00:40;57.85;;;26.05;;
83190;SDS011;73087;49.924;22.080;2024-02-15T03:01:40;58.63;;;26.33;;
83190;SDS011;73087;49.924;22.080;2024-02-15T03:02:41;51.03;;;26.15;;
83190;SDS011;73087;49.924;22.080;2024-02-15T03:03:41;50.85;;;23.70;;
83190;SDS011;73087;49.924;22.080;2024-02-15T03:04:42;54.28;;;24.58;;
83190;SDS011;73087;49.924;22.080;2024-02-15T03:05:43;57.42;;;24.58;;
83190;SDS011;73087;49.924;22.080;2024-02-15T03:06:43;53.53;;;22.42;;
83190;SDS011;73087;49.924;22.080;2024-02-15T03:07:44;45.67;;;22.52;;
83190;SDS011;73087;49.924;22.080;2024-02-15T03:08:44;48.55;;;22.33;;
83190;SDS011;73087;49.924;22.080;2024-02-15T03:09:45;47.88;;;21.95;;
83190;SDS011;73087;49.924;22.080;2024-02-15T03:10:47;48.92;;;22.05;;
83190;SDS011;73087;49.924;22.080;2024-02-15T03:11:47;47.95;;;22.35;;
83190;SDS011;73087;49.924;22.080;2024-02-15T03:12:48;57.72;;;25.05;;
83190;SDS011;73087;49.924;22.080;2024-02-15T03:13:48;52.22;;;23.48;;
83190;SDS011;73087;49.924;22.080;2024-02-15T03:14:49;50.50;;;23.35;;
83190;SDS011;73087;49.924;22.080;2024-02-15T03:15:49;49.03;;;22.58;;
83190;SDS011;73087;49.924;22.080;2024-02-15T03:16:50;47.35;;;20.33;;
83190;SDS011;73087;49.924;22.080;2024-02-15T03:17:50;46.95;;;20.38;;
83190;SDS011;73087;49.924;22.080;2024-02-15T03:18:51;41.03;;;19.17;;
83190;SDS011;73087;49.924;22.080;2024-02-15T03:19:51;39.53;;;19.75;;
83190;SDS011;73087;49.924;22.080;2024-02-15T03:20:52;41.55;;;18.75;;
83190;SDS011;73087;49.924;22.080;2024-02-15T03:21:53;41.28;;;19.13;;
83190;SDS011;73087;49.924;22.080;2024-02-15T03:22:53;44.33;;;18.65;;
83190;SDS011;73087;49.924;22.080;2024-02-15T03:23:55;45.25;;;19.92;;
83190;SDS011;73087;49.924;22.080;2024-02-15T03:24:55;39.17;;;18.80;;
83190;SDS011;73087;49.924;22.080;2024-02-15T03:25:57;36.05;;;18.30;;
83190;SDS011;73087;49.924;22.080;2024-02-15T03:26:58;42.28;;;18.63;;
83190;SDS011;73087;49.924;22.080;2024-02-15T03:27:59;36.88;;;17.88;;
83190;SDS011;73087;49.924;22.080;2024-02-15T03:28:59;42.95;;;19.08;;
83190;SDS011;73087;49.924;22.080;2024-02-15T03:30:00;36.78;;;17.23;;
83190;SDS011;73087;49.924;22.080;2024-02-15T03:31:01;39.55;;;17.45;;
83190;SDS011;73087;49.924;22.080;2024-02-15T03:32:01;44.30;;;20.67;;
83190;SDS011;73087;49.924;22.080;2024-02-15T03:33:02;42.63;;;19.77;;
83190;SDS011;73087;49.924;22.080;2024-02-15T03:34:03;44.35;;;20.75;;
83190;SDS011;73087;49.924;22.080;2024-02-15T03:35:04;48.20;;;21.77;;
83190;SDS011;73087;49.924;22.080;2024-02-15T03:36:05;46.92;;;21.00;;
83190;SDS011;73087;49.924;22.080;2024-02-15T03:37:05;52.72;;;23.63;;
83190;SDS011;73087;49.924;22.080;2024-02-15T03:38:06;46.35;;;21.55;;
83190;SDS011;73087;49.924;22.080;2024-02-15T03:39:06;46.33;;;21.70;;
83190;SDS011;73087;49.924;22.080;2024-02-15T03:40:07;46.03;;;21.83;;
83190;SDS011;73087;49.924;22.080;2024-02-15T03:41:09;46.60;;;21.67;;
83190;SDS011;73087;49.924;22.080;2024-02-15T03:42:10;49.00;;;21.95;;
83190;SDS011;73087;49.924;22.080;2024-02-15T03:43:11;48.92;;;22.17;;
83190;SDS011;73087;49.924;22.080;2024-02-15T03:44:11;45.22;;;21.65;;
83190;SDS011;73087;49.924;22.080;2024-02-15T03:45:12;50.08;;;22.98;;
83190;SDS011;73087;49.924;22.080;2024-02-15T03:46:13;41.30;;;20.73;;
83190;SDS011;73087;49.924;22.080;2024-02-15T03:47:13;44.13;;;20.67;;
83190;SDS011;73087;49.924;22.080;2024-02-15T03:48:14;46.42;;;20.92;;
83190;SDS011;73087;49.924;22.080;2024-02-15T03:49:14;44.85;;;21.33;;
83190;SDS011;73087;49.924;22.080;2024-02-15T03:50:15;45.30;;;21.98;;
83190;SDS011;73087;49.924;22.080;2024-02-15T03:51:16;48.55;;;22.42;;
83190;SDS011;73087;49.924;22.080;2024-02-15T03:52:16;38.38;;;19.20;;
83190;SDS011;73087;49.924;22.080;2024-02-15T03:53:17;41.53;;;20.08;;
83190;SDS011;73087;49.924;22.080;2024-02-15T03:54:17;39.25;;;18.77;;
83190;SDS011;73087;49.924;22.080;2024-02-15T03:55:18;43.03;;;19.63;;
83190;SDS011;73087;49.924;22.080;2024-02-15T03:56:20;37.35;;;18.10;;
83190;SDS011;73087;49.924;22.080;2024-02-15T03:57:20;42.00;;;19.95;;
83190;SDS011;73087;49.924;22.080;2024-02-15T03:58:21;43.03;;;19.42;;
83190;SDS011;73087;49.924;22.080;2024-02-15T03:59:22;42.58;;;19.65;;
83190;SDS011;73087;49.924;22.080;2024-02-15T04:00:22;39.30;;;19.50;;
83190;SDS011;73087;49.924;22.080;2024-02-15T04:01:23;47.05;;;20.88;;
83190;SDS011;73087;49.924;22.080;2024-02-15T04:02:24;45.22;;;20.45;;
83190;SDS011;73087;49.924;22.080;2024-02-15T04:03:25;51.85;;;21.90;;
83190;SDS011;73087;49.924;22.080;2024-02-15T04:04:25;47.60;;;21.73;;
83190;SDS011;73087;49.924;22.080;2024-02-15T04:05:27;43.90;;;20.85;;
83190;SDS011;73087;49.924;22.080;2024-02-15T04:06:27;41.75;;;19.60;;
83190;SDS011;73087;49.924;22.080;2024-02-15T04:07:28;36.65;;;18.17;;
83190;SDS011;73087;49.924;22.080;2024-02-15T04:08:28;30.40;;;15.15;;
83190;SDS011;73087;49.924;22.080;2024-02-15T04:09:29;34.53;;;15.75;;
83190;SDS011;73087;49.924;22.080;2024-02-15T04:10:29;39.30;;;17.27;;
83190;SDS011;73087;49.924;22.080;2024-02-15T04:11:31;34.65;;;15.95;;
83190;SDS011;73087;49.924;22.080;2024-02-15T04:12:32;33.55;;;15.82;;
83190;SDS011;73087;49.924;22.080;2024-02-15T04:13:32;36.28;;;16.17;;
83190;SDS011;73087;49.924;22.080;2024-02-15T04:14:33;35.08;;;16.08;;
83190;SDS011;73087;49.924;22.080;2024-02-15T04:15:34;30.15;;;15.45;;
83190;SDS011;73087;49.924;22.080;2024-02-15T04:16:34;31.40;;;16.15;;
83190;SDS011;73087;49.924;22.080;2024-02-15T04:17:35;33.47;;;16.23;;
83190;SDS011;73087;49.924;22.080;2024-02-15T04:18:35;31.70;;;15.50;;
83190;SDS011;73087;49.924;22.080;2024-02-15T04:19:36;30.27;;;15.50;;
83190;SDS011;73087;49.924;22.080;2024-02-15T04:20:36;32.13;;;14.90;;
83190;SDS011;73087;49.924;22.080;2024-02-15T04:21:37;27.52;;;12.80;;
83190;SDS011;73087;49.924;22.080;2024-02-15T04:22:38;26.40;;;13.65;;
83190;SDS011;73087;49.924;22.080;2024-02-15T04:23:38;26.92;;;13.07;;
83190;SDS011;73087;49.924;22.080;2024-02-15T04:24:39;31.05;;;14.98;;
83190;SDS011;73087;49.924;22.080;2024-02-15T04:25:39;33.00;;;16.38;;
83190;SDS011;73087;49.924;22.080;2024-02-15T04:26:41;30.92;;;15.60;;
83190;SDS011;73087;49.924;22.080;2024-02-15T04:27:42;33.85;;;15.55;;
83190;SDS011;73087;49.924;22.080;2024-02-15T04:28:43;33.00;;;17.35;;
83190;SDS011;73087;49.924;22.080;2024-02-15T04:29:43;37.85;;;17.65;;
83190;SDS011;73087;49.924;22.080;2024-02-15T04:30:44;34.80;;;16.85;;
83190;SDS011;73087;49.924;22.080;2024-02-15T04:31:44;42.17;;;19.52;;
83190;SDS011;73087;49.924;22.080;2024-02-15T04:32:45;46.88;;;21.35;;
83190;SDS011;73087;49.924;22.080;2024-02-15T04:33:45;41.88;;;20.88;;
83190;SDS011;73087;49.924;22.080;2024-02-15T04:34:46;41.10;;;20.05;;
83190;SDS011;73087;49.924;22.080;2024-02-15T04:35:46;42.63;;;20.10;;
83190;SDS011;73087;49.924;22.080;2024-02-15T04:36:47;46.65;;;20.67;;
83190;SDS011;73087;49.924;22.080;2024-02-15T04:37:48;45.13;;;20.30;;
83190;SDS011;73087;49.924;22.080;2024-02-15T04:38:50;43.25;;;20.67;;
83190;SDS011;73087;49.924;22.080;2024-02-15T04:39:50;44.92;;;21.70;;
83190;SDS011;73087;49.924;22.080;2024-02-15T04:40:51;52.92;;;26.23;;
83190;SDS011;73087;49.924;22.080;2024-02-15T04:41:53;55.30;;;25.85;;
83190;SDS011;73087;49.924;22.080;2024-02-15T04:42:53;55.78;;;26.52;;
83190;SDS011;73087;49.924;22.080;2024-02-15T04:43:54;51.45;;;25.05;;
83190;SDS011;73087;49.924;22.080;2024-02-15T04:44:54;52.55;;;26.23;;
83190;SDS011;73087;49.924;22.080;2024-02-15T04:45:56;55.17;;;25.75;;
83190;SDS011;73087;49.924;22.080;2024-02-15T04:46:57;51.60;;;25.38;;
83190;SDS011;73087;49.924;22.080;2024-02-15T04:47:57;57.75;;;26.73;;
83190;SDS011;73087;49.924;22.080;2024-02-15T04:48:58;54.90;;;26.40;;
83190;SDS011;73087;49.924;22.080;2024-02-15T04:49:58;47.25;;;22.60;;
83190;SDS011;73087;49.924;22.080;2024-02-15T04:50:59;60.80;;;27.45;;
83190;SDS011;73087;49.924;22.080;2024-02-15T04:51:59;54.63;;;25.10;;
83190;SDS011;73087;49.924;22.080;2024-02-15T04:53:00;55.33;;;26.80;;
83190;SDS011;73087;49.924;22.080;2024-02-15T04:54:00;60.95;;;28.98;;
83190;SDS011;73087;49.924;22.080;2024-02-15T04:55:01;58.22;;;29.30;;
83190;SDS011;73087;49.924;22.080;2024-02-15T04:56:02;54.25;;;27.48;;
83190;SDS011;73087;49.924;22.080;2024-02-15T04:57:04;57.20;;;28.30;;
83190;SDS011;73087;49.924;22.080;2024-02-15T04:58:05;58.67;;;27.83;;
83190;SDS011;73087;49.924;22.080;2024-02-15T04:59:05;54.50;;;27.42;;
83190;SDS011;73087;49.924;22.080;2024-02-15T05:00:06;57.72;;;27.52;;
83190;SDS011;73087;49.924;22.080;2024-02-15T05:01:08;62.65;;;28.45;;
83190;SDS011;73087;49.924;22.080;2024-02-15T05:02:08;69.28;;;34.08;;
83190;SDS011;73087;49.924;22.080;2024-02-15T05:03:09;63.83;;;33.15;;
83190;SDS011;73087;49.924;22.080;2024-02-15T05:04:09;63.70;;;32.03;;
83190;SDS011;73087;49.924;22.080;2024-02-15T05:05:10;63.95;;;32.78;;
83190;SDS011;73087;49.924;22.080;2024-02-15T05:06:10;65.45;;;30.58;;
83190;SDS011;73087;49.924;22.080;2024-02-15T05:07:11;64.95;;;32.17;;
83190;SDS011;73087;49.924;22.080;2024-02-15T05:08:12;62.15;;;31.80;;
83190;SDS011;73087;49.924;22.080;2024-02-15T05:09:12;64.60;;;30.13;;
83190;SDS011;73087;49.924;22.080;2024-02-15T05:10:13;62.40;;;30.30;;
83190;SDS011;73087;49.924;22.080;2024-02-15T05:11:13;60.95;;;29.50;;
83190;SDS011;73087;49.924;22.080;2024-02-15T05:12:21;59.08;;;30.30;;
83190;SDS011;73087;49.924;22.080;2024-02-15T05:13:23;64.35;;;30.50;;
83190;SDS011;73087;49.924;22.080;2024-02-15T05:14:24;59.22;;;28.70;;
83190;SDS011;73087;49.924;22.080;2024-02-15T05:15:25;61.05;;;29.65;;
83190;SDS011;73087;49.924;22.080;2024-02-15T05:16:25;62.45;;;31.17;;
83190;SDS011;73087;49.924;22.080;2024-02-15T05:17:26;58.88;;;29.80;;
83190;SDS011;73087;49.924;22.080;2024-02-15T05:18:27;56.85;;;26.77;;
83190;SDS011;73087;49.924;22.080;2024-02-15T05:19:28;52.50;;;25.48;;
83190;SDS011;73087;49.924;22.080;2024-02-15T05:20:28;44.58;;;23.10;;
83190;SDS011;73087;49.924;22.080;2024-02-15T05:21:29;46.47;;;24.00;;
83190;SDS011;73087;49.924;22.080;2024-02-15T05:22:29;47.10;;;22.95;;
83190;SDS011;73087;49.924;22.080;2024-02-15T05:23:30;52.08;;;24.58;;
83190;SDS011;73087;49.924;22.080;2024-02-15T05:24:30;48.13;;;23.90;;
83190;SDS011;73087;49.924;22.080;2024-02-15T05:25:31;51.88;;;25.48;;
83190;SDS011;73087;49.924;22.080;2024-02-15T05:26:31;50.38;;;25.50;;
83190;SDS011;73087;49.924;22.080;2024-02-15T05:27:34;50.72;;;24.27;;
83190;SDS011;73087;49.924;22.080;2024-02-15T05:28:35;44.67;;;22.88;;
83190;SDS011;73087;49.924;22.080;2024-02-15T05:29:35;53.35;;;21.85;;
83190;SDS011;73087;49.924;22.080;2024-02-15T05:30:36;44.40;;;21.88;;
83190;SDS011;73087;49.924;22.080;2024-02-15T05:31:36;45.97;;;21.83;;
83190;SDS011;73087;49.924;22.080;2024-02-15T05:32:37;41.40;;;21.88;;
83190;SDS011;73087;49.924;22.080;2024-02-15T05:33:37;42.67;;;21.17;;
83190;SDS011;73087;49.924;22.080;2024-02-15T05:34:38;45.60;;;22.77;;
83190;SDS011;73087;49.924;22.080;2024-02-15T05:35:38;41.88;;;20.33;;
83190;SDS011;73087;49.924;22.080;2024-02-15T05:36:39;44.15;;;21.40;;
83190;SDS011;73087;49.924;22.080;2024-02-15T05:37:40;43.10;;;21.42;;
83190;SDS011;73087;49.924;22.080;2024-02-15T05:38:40;42.80;;;20.48;;
83190;SDS011;73087;49.924;22.080;2024-02-15T05:39:41;41.42;;;20.70;;
83190;SDS011;73087;49.924;22.080;2024-02-15T05:40:41;43.25;;;21.05;;
83190;SDS011;73087;49.924;22.080;2024-02-15T05:41:43;42.60;;;20.67;;
83190;SDS011;73087;49.924;22.080;2024-02-15T05:42:45;41.67;;;20.65;;
83190;SDS011;73087;49.924;22.080;2024-02-15T05:43:46;45.28;;;20.38;;
83190;SDS011;73087;49.924;22.080;2024-02-15T05:44:47;44.80;;;21.38;;
83190;SDS011;73087;49.924;22.080;2024-02-15T05:45:47;47.22;;;22.10;;
83190;SDS011;73087;49.924;22.080;2024-02-15T05:46:48;40.63;;;20.77;;
83190;SDS011;73087;49.924;22.080;2024-02-15T05:47:48;47.47;;;21.63;;
83190;SDS011;73087;49.924;22.080;2024-02-15T05:48:49;42.47;;;21.10;;
83190;SDS011;73087;49.924;22.080;2024-02-15T05:49:50;52.75;;;23.42;;